Portada
METAR-TAF:

METAR-TAF

Aeroports :

Fairford, Anglaterra

latitud: 51-41N, longitud: 001-47W, altitud: 87 m

Observació

L'informe es va fer fa 47 minuts, a les 06:56 UTC
Vent 12 kt del Oest
Temperatura 2°C
Humitat 80%
Pressió 1001 hPa
Visibilitat 10 km o més
Escasses núvols a una alçada de 2700 ft

METAR: EGVA 260656Z AUTO 27012KT 9999 FEW027 02/M01 A2956 RMK AO2 SLP017 T00191008 $

Hora: 07:43 (07:43 UTC)


TAF: manca

Observacions i pronòstics meteorològics de més de 4000 aeroports (METAR i TAF).

Les estacions disponibles són els punts grocs i vermells al mapa.

Posi el ratolí al punt desitjat per veure el nom de l'estació.

Feu clic per veure les observacions i els pronòstics meteorològics.

Per canviar el mapa: feu clic els botons verds amb una creu de color negre per apropar; al botó verd amb un guió per allunyar la imatge; o en les fletxes verdes per a mapes adjacents.


METAR-TAF: